createdAt,value
2023-05-03T00:01:31.782Z,12.19
2023-05-03T00:06:33.544Z,12.14
2023-05-03T00:11:35.202Z,12.16
2023-05-03T00:16:36.931Z,11.89
2023-05-03T00:21:38.673Z,11.99
2023-05-03T00:26:40.278Z,11.75
2023-05-03T00:31:44.587Z,12.00
2023-05-03T00:36:46.279Z,11.74
2023-05-03T00:41:47.916Z,11.90
2023-05-03T00:46:50.033Z,11.61
2023-05-03T00:51:53.416Z,11.93
2023-05-03T00:56:56.745Z,11.98
2023-05-03T01:01:58.543Z,12.09
2023-05-03T01:07:12.243Z,11.77
2023-05-03T01:13:11.094Z,12.06
2023-05-03T01:18:18.660Z,12.12
2023-05-03T01:23:57.334Z,12.06
2023-05-03T01:29:00.353Z,12.10
2023-05-03T01:34:17.028Z,12.13
2023-05-03T01:39:23.343Z,12.13
2023-05-03T01:44:25.800Z,11.91
2023-05-03T01:49:27.396Z,11.77
2023-05-03T01:54:29.054Z,11.98
2023-05-03T01:59:30.746Z,11.93
2023-05-03T02:04:32.478Z,11.58
2023-05-03T02:09:34.119Z,11.25
2023-05-03T02:14:35.862Z,11.69
2023-05-03T02:19:37.465Z,11.70
2023-05-03T02:24:40.128Z,11.84
2023-05-03T02:29:41.811Z,11.62
2023-05-03T02:34:48.966Z,11.54
2023-05-03T02:39:51.090Z,11.55
2023-05-03T02:44:52.700Z,11.60
2023-05-03T02:49:54.276Z,11.61
2023-05-03T02:54:56.042Z,11.45
2023-05-03T02:59:57.668Z,11.53
2023-05-03T03:04:59.436Z,11.43
2023-05-03T03:10:01.404Z,11.66
2023-05-03T03:15:04.030Z,11.35
2023-05-03T03:20:11.606Z,11.58
2023-05-03T03:25:13.320Z,11.61
2023-05-03T03:30:15.371Z,11.57
2023-05-03T03:35:17.245Z,11.49
2023-05-03T03:40:18.920Z,11.43
2023-05-03T03:45:20.568Z,11.60
2023-05-03T03:50:22.208Z,11.64
2023-05-03T03:55:23.781Z,11.69
2023-05-03T04:00:25.597Z,11.75
2023-05-03T04:05:27.292Z,11.76
2023-05-03T04:10:28.902Z,11.86
2023-05-03T04:15:30.567Z,11.79
2023-05-03T04:20:33.134Z,11.78
2023-05-03T04:25:37.160Z,11.79
2023-05-03T04:30:38.767Z,11.80
2023-05-03T04:35:41.465Z,11.48
2023-05-03T04:40:43.185Z,11.62
2023-05-03T04:45:44.748Z,11.69
2023-05-03T04:50:46.484Z,11.87
2023-05-03T04:55:48.032Z,11.76
2023-05-03T05:00:50.347Z,11.78
2023-05-03T05:05:52.054Z,11.86
2023-05-03T05:10:53.665Z,11.88
2023-05-03T05:15:55.845Z,11.89
2023-05-03T05:20:57.473Z,11.79
2023-05-03T05:26:00.664Z,12.02
2023-05-03T05:31:02.325Z,11.95
2023-05-03T05:36:04.673Z,11.91
2023-05-03T05:41:06.663Z,11.81
2023-05-03T05:46:08.822Z,11.95
2023-05-03T05:51:10.466Z,12.02
2023-05-03T05:56:12.049Z,11.94
2023-05-03T06:01:13.726Z,12.12
2023-05-03T06:06:15.337Z,12.08
2023-05-03T06:11:17.498Z,12.04
2023-05-03T06:16:19.328Z,11.95
2023-05-03T06:21:21.857Z,12.12
2023-05-03T06:26:24.666Z,12.19
2023-05-03T06:31:26.502Z,12.27
2023-05-03T06:36:30.385Z,12.23
2023-05-03T06:41:34.637Z,12.18
2023-05-03T06:46:36.279Z,12.17
2023-05-03T06:51:37.970Z,12.40
2023-05-03T06:56:39.527Z,12.46
2023-05-03T07:01:41.180Z,12.46
2023-05-03T07:06:55.466Z,12.42
2023-05-03T07:11:58.198Z,12.51
2023-05-03T07:16:59.820Z,12.56
2023-05-03T07:22:03.380Z,12.62
2023-05-03T07:27:05.542Z,12.67
2023-05-03T07:32:07.229Z,12.72
2023-05-03T07:37:08.805Z,12.75
2023-05-03T07:42:10.502Z,12.75
2023-05-03T07:47:12.218Z,12.80
2023-05-03T07:52:13.821Z,12.93
2023-05-03T07:57:16.446Z,13.00
2023-05-03T08:02:18.174Z,13.04
2023-05-03T08:07:20.156Z,13.09
2023-05-03T08:12:21.710Z,13.20
2023-05-03T08:17:24.114Z,13.32
2023-05-03T08:22:27.073Z,13.25
2023-05-03T08:27:28.703Z,13.40
2023-05-03T08:32:30.648Z,13.44
2023-05-03T08:37:38.324Z,13.56
2023-05-03T08:42:41.761Z,13.53
2023-05-03T08:47:45.575Z,13.56
2023-05-03T08:52:47.496Z,13.86
2023-05-03T08:57:49.111Z,13.81
2023-05-03T09:02:51.857Z,14.01
2023-05-03T09:08:17.170Z,14.05
2023-05-03T09:13:19.109Z,14.07
2023-05-03T09:18:21.313Z,13.98
2023-05-03T09:23:32.438Z,13.87
2023-05-03T09:28:42.430Z,13.80
2023-05-03T09:33:44.402Z,13.78
2023-05-03T09:38:46.039Z,13.80
2023-05-03T09:43:52.303Z,13.79
2023-05-03T09:48:56.999Z,13.69
2023-05-03T09:53:59.556Z,14.14
2023-05-03T09:59:01.141Z,14.05
2023-05-03T10:04:03.955Z,14.26
2023-05-03T10:09:16.583Z,14.18
2023-05-03T10:14:18.979Z,14.28
2023-05-03T10:19:32.362Z,14.26
2023-05-03T10:24:38.486Z,14.11
2023-05-03T10:29:48.701Z,14.05
2023-05-03T10:34:57.896Z,13.98
2023-05-03T10:40:10.293Z,14.00
2023-05-03T10:45:28.726Z,14.22
2023-05-03T10:50:30.402Z,14.38
2023-05-03T10:55:32.757Z,14.03
2023-05-03T11:00:38.510Z,14.32
2023-05-03T11:05:40.149Z,14.36
2023-05-03T11:10:42.076Z,14.20
2023-05-03T11:15:44.795Z,14.20
2023-05-03T11:20:47.973Z,14.25
2023-05-03T11:25:52.074Z,14.47
2023-05-03T11:30:53.927Z,14.63
2023-05-03T11:35:56.678Z,14.37
2023-05-03T11:40:59.882Z,14.45
2023-05-03T11:46:01.729Z,14.72
2023-05-03T11:51:11.069Z,14.70
2023-05-03T11:56:18.960Z,14.71
2023-05-03T12:01:23.829Z,14.67
2023-05-03T12:06:28.031Z,14.71
2023-05-03T12:11:32.040Z,14.67
2023-05-03T12:16:51.830Z,14.73
2023-05-03T12:22:13.347Z,14.70
2023-05-03T12:27:17.306Z,14.82
2023-05-03T12:32:22.976Z,14.76
2023-05-03T12:37:27.611Z,14.79
2023-05-03T12:42:30.883Z,14.85
2023-05-03T12:47:36.428Z,15.09
2023-05-03T12:52:38.958Z,14.92
2023-05-03T12:57:42.539Z,15.06
2023-05-03T13:07:55.979Z,14.91
2023-05-03T13:12:57.858Z,15.35
2023-05-03T13:18:01.764Z,14.96
2023-05-03T13:23:04.344Z,15.37
2023-05-03T13:28:05.973Z,14.88
2023-05-03T13:33:08.379Z,14.91
2023-05-03T13:38:10.085Z,14.88
2023-05-03T13:43:11.982Z,14.82
2023-05-03T13:48:17.695Z,14.84
2023-05-03T13:53:20.994Z,14.83
2023-05-03T13:58:22.788Z,14.98
2023-05-03T14:03:26.103Z,14.77
2023-05-03T14:08:27.835Z,14.86
2023-05-03T14:13:34.869Z,14.76
2023-05-03T14:18:42.318Z,14.95
2023-05-03T14:23:47.346Z,14.85
2023-05-03T14:28:48.960Z,14.79
2023-05-03T14:33:50.687Z,14.97
2023-05-03T14:38:52.352Z,14.80
2023-05-03T14:43:53.949Z,14.86
2023-05-03T14:48:55.783Z,15.06
2023-05-03T14:53:57.487Z,14.87
2023-05-03T14:58:59.498Z,14.46
2023-05-03T15:04:01.267Z,14.28
2023-05-03T15:09:02.959Z,14.29
2023-05-03T15:14:04.635Z,14.33
2023-05-03T15:19:07.526Z,14.41
2023-05-03T15:24:09.260Z,14.65
2023-05-03T15:29:11.315Z,14.84
2023-05-03T15:34:13.146Z,14.22
2023-05-03T15:39:14.869Z,14.17
2023-05-03T15:44:16.490Z,14.07
2023-05-03T15:49:18.122Z,14.13
2023-05-03T15:54:19.730Z,14.07
2023-05-03T15:59:21.397Z,14.08
2023-05-03T16:04:23.019Z,14.03
2023-05-03T16:09:24.701Z,14.06
2023-05-03T16:14:26.512Z,14.01
2023-05-03T16:19:28.097Z,14.03
2023-05-03T16:24:29.816Z,14.02
2023-05-03T16:29:33.746Z,14.03
2023-05-03T16:34:35.796Z,14.03
2023-05-03T16:39:37.685Z,14.02
2023-05-03T16:44:39.300Z,14.00
2023-05-03T16:49:40.930Z,13.98
2023-05-03T16:54:43.482Z,14.02
2023-05-03T16:59:45.192Z,13.98
2023-05-03T17:04:46.807Z,14.04
2023-05-03T17:09:48.416Z,14.03
2023-05-03T17:14:50.059Z,14.03
2023-05-03T17:19:51.705Z,14.00
2023-05-03T17:24:55.273Z,13.95
2023-05-03T17:29:57.482Z,13.95
2023-05-03T17:34:59.169Z,13.86
2023-05-03T17:40:00.949Z,13.88
2023-05-03T17:45:04.276Z,13.69
2023-05-03T17:50:06.635Z,13.79
2023-05-03T17:55:08.813Z,13.70
2023-05-03T18:00:17.043Z,13.66
2023-05-03T18:05:18.848Z,13.75
2023-05-03T18:10:21.077Z,13.63
2023-05-03T18:15:22.831Z,13.66
2023-05-03T18:20:24.828Z,14.26
2023-05-03T18:25:26.742Z,13.76
2023-05-03T18:30:29.440Z,13.67
2023-05-03T18:35:31.341Z,13.58
2023-05-03T18:40:33.030Z,13.59
2023-05-03T18:45:38.853Z,13.53
2023-05-03T18:50:43.424Z,13.62
2023-05-03T18:55:45.774Z,13.53
2023-05-03T19:00:48.589Z,13.60
2023-05-03T19:05:50.923Z,13.57
2023-05-03T19:10:52.980Z,13.56
2023-05-03T19:15:57.462Z,13.56
2023-05-03T19:20:59.610Z,13.55
2023-05-03T19:26:01.975Z,13.52
2023-05-03T19:31:08.031Z,13.55
2023-05-03T19:36:15.075Z,13.53
2023-05-03T19:41:17.252Z,13.42
2023-05-03T19:46:20.933Z,13.43
2023-05-03T19:51:22.792Z,13.45
2023-05-03T19:56:25.260Z,13.41
2023-05-03T20:01:27.302Z,13.43
2023-05-03T20:06:29.205Z,13.40
2023-05-03T20:11:30.911Z,13.35
2023-05-03T20:16:37.470Z,13.37
2023-05-03T20:21:39.107Z,13.36
2023-05-03T20:26:41.258Z,13.32
2023-05-03T20:31:44.348Z,13.24
2023-05-03T20:36:47.260Z,13.31
2023-05-03T20:41:48.924Z,13.32
2023-05-03T20:46:51.249Z,13.33
2023-05-03T20:51:52.922Z,13.31
2023-05-03T20:56:54.505Z,13.24
2023-05-03T21:01:56.481Z,13.11
2023-05-03T21:06:58.061Z,13.25
2023-05-03T21:11:59.688Z,13.26
2023-05-03T21:17:01.558Z,13.20
2023-05-03T21:22:03.180Z,13.23
2023-05-03T21:27:04.789Z,13.15
2023-05-03T21:32:06.913Z,13.20
2023-05-03T21:37:08.515Z,13.22
2023-05-03T21:42:10.111Z,13.01
2023-05-03T21:47:11.692Z,13.12
2023-05-03T21:52:13.812Z,13.12
2023-05-03T21:57:15.408Z,13.10
2023-05-03T22:02:17.449Z,12.97
2023-05-03T22:07:19.069Z,12.91
2023-05-03T22:12:24.307Z,12.96
2023-05-03T22:17:27.252Z,12.98
2023-05-03T22:22:28.869Z,12.92
2023-05-03T22:27:30.582Z,12.93
2023-05-03T22:32:32.465Z,12.83
2023-05-03T22:37:34.614Z,12.74
2023-05-03T22:42:36.391Z,12.78
2023-05-03T22:47:38.071Z,12.85
2023-05-03T22:52:39.782Z,12.82
2023-05-03T22:57:41.832Z,12.76
2023-05-03T23:02:43.530Z,12.64
2023-05-03T23:07:45.227Z,12.56
2023-05-03T23:12:46.900Z,12.59
2023-05-03T23:17:48.555Z,12.59
2023-05-03T23:22:50.430Z,12.61
2023-05-03T23:27:52.076Z,12.65
2023-05-03T23:32:54.087Z,12.49
2023-05-03T23:37:56.293Z,12.49
2023-05-03T23:42:57.899Z,12.37
2023-05-03T23:47:59.486Z,12.53
2023-05-03T23:53:03.578Z,12.29
2023-05-03T23:58:05.279Z,12.41
